sensor_id;sensor_type;location;lat;lon;timestamp;pressure;altitude;pressure_sealevel;temperature;humidity
18652;BME280;9455;54.302;10.124;2022-10-13T00:01:12;101924.72;;;8.27;93.05
18652;BME280;9455;54.302;10.124;2022-10-13T00:03:40;101922.03;;;8.43;93.16
18652;BME280;9455;54.302;10.124;2022-10-13T00:06:08;101922.66;;;8.32;92.93
18652;BME280;9455;54.302;10.124;2022-10-13T00:08:36;101920.75;;;8.34;92.87
18652;BME280;9455;54.302;10.124;2022-10-13T00:11:10;101923.03;;;8.40;92.91
18652;BME280;9455;54.302;10.124;2022-10-13T00:13:37;101918.09;;;8.34;92.81
18652;BME280;9455;54.302;10.124;2022-10-13T00:16:04;101919.38;;;8.43;92.94
18652;BME280;9455;54.302;10.124;2022-10-13T00:18:31;101919.44;;;8.41;92.74
18652;BME280;9455;54.302;10.124;2022-10-13T00:20:57;101917.06;;;8.36;92.89
18652;BME280;9455;54.302;10.124;2022-10-13T00:23:24;101920.75;;;8.34;92.70
18652;BME280;9455;54.302;10.124;2022-10-13T00:25:50;101911.63;;;8.24;92.80
18652;BME280;9455;54.302;10.124;2022-10-13T00:28:19;101913.81;;;8.31;92.76
18652;BME280;9455;54.302;10.124;2022-10-13T00:30:46;101915.44;;;8.34;93.02
18652;BME280;9455;54.302;10.124;2022-10-13T00:33:13;101911.06;;;8.33;93.00
18652;BME280;9455;54.302;10.124;2022-10-13T00:35:40;101911.44;;;8.27;92.71
18652;BME280;9455;54.302;10.124;2022-10-13T00:38:07;101912.97;;;8.31;92.74
18652;BME280;9455;54.302;10.124;2022-10-13T00:40:42;101916.75;;;8.27;92.75
18652;BME280;9455;54.302;10.124;2022-10-13T00:43:14;101922.81;;;8.29;92.80
18652;BME280;9455;54.302;10.124;2022-10-13T00:45:42;101925.38;;;8.30;92.45
18652;BME280;9455;54.302;10.124;2022-10-13T00:48:11;101922.28;;;8.38;92.15
18652;BME280;9455;54.302;10.124;2022-10-13T00:50:39;101925.31;;;8.32;92.38
18652;BME280;9455;54.302;10.124;2022-10-13T00:53:07;101921.69;;;8.33;92.29
18652;BME280;9455;54.302;10.124;2022-10-13T00:55:37;101911.16;;;8.31;92.05
18652;BME280;9455;54.302;10.124;2022-10-13T00:58:07;101903.97;;;8.18;92.19
18652;BME280;9455;54.302;10.124;2022-10-13T01:00:35;101914.50;;;8.19;92.58
18652;BME280;9455;54.302;10.124;2022-10-13T01:03:03;101917.25;;;8.18;92.60
18652;BME280;9455;54.302;10.124;2022-10-13T01:05:30;101910.16;;;8.18;92.51
18652;BME280;9455;54.302;10.124;2022-10-13T01:07:56;101911.16;;;8.16;92.17
18652;BME280;9455;54.302;10.124;2022-10-13T01:10:31;101903.75;;;8.07;92.25
18652;BME280;9455;54.302;10.124;2022-10-13T01:13:05;101897.66;;;8.05;92.38
18652;BME280;9455;54.302;10.124;2022-10-13T01:15:39;101897.03;;;8.15;92.59
18652;BME280;9455;54.302;10.124;2022-10-13T01:18:12;101901.13;;;8.21;92.45
18652;BME280;9455;54.302;10.124;2022-10-13T01:21:05;101898.72;;;8.32;92.01
18652;BME280;9455;54.302;10.124;2022-10-13T01:23:48;101889.63;;;8.36;92.04
18652;BME280;9455;54.302;10.124;2022-10-13T01:26:43;101887.56;;;8.41;92.30
18652;BME280;9455;54.302;10.124;2022-10-13T01:29:40;101885.47;;;8.46;91.99
18652;BME280;9455;54.302;10.124;2022-10-13T01:32:10;101881.84;;;8.47;91.85
18652;BME280;9455;54.302;10.124;2022-10-13T01:34:43;101867.72;;;8.47;91.76
18652;BME280;9455;54.302;10.124;2022-10-13T01:37:20;101873.31;;;8.42;91.91
18652;BME280;9455;54.302;10.124;2022-10-13T01:39:52;101871.44;;;8.44;92.32
18652;BME280;9455;54.302;10.124;2022-10-13T01:42:23;101864.28;;;8.44;91.95
18652;BME280;9455;54.302;10.124;2022-10-13T01:44:57;101866.69;;;8.49;92.37
18652;BME280;9455;54.302;10.124;2022-10-13T01:47:26;101858.34;;;8.55;92.08
18652;BME280;9455;54.302;10.124;2022-10-13T01:49:55;101869.16;;;8.52;91.69
18652;BME280;9455;54.302;10.124;2022-10-13T01:52:24;101865.72;;;8.50;92.34
18652;BME280;9455;54.302;10.124;2022-10-13T01:54:53;101860.81;;;8.44;92.17
18652;BME280;9455;54.302;10.124;2022-10-13T01:57:29;101861.72;;;8.43;92.16
18652;BME280;9455;54.302;10.124;2022-10-13T01:59:57;101856.41;;;8.43;92.17
18652;BME280;9455;54.302;10.124;2022-10-13T02:02:28;101847.28;;;8.33;92.30
18652;BME280;9455;54.302;10.124;2022-10-13T02:05:03;101844.41;;;8.22;92.40
18652;BME280;9455;54.302;10.124;2022-10-13T02:07:37;101845.75;;;8.29;92.47
18652;BME280;9455;54.302;10.124;2022-10-13T02:10:12;101842.53;;;8.24;92.13
18652;BME280;9455;54.302;10.124;2022-10-13T02:12:48;101841.50;;;8.11;92.32
18652;BME280;9455;54.302;10.124;2022-10-13T02:15:20;101831.19;;;8.20;92.33
18652;BME280;9455;54.302;10.124;2022-10-13T02:17:49;101836.56;;;8.05;92.50
18652;BME280;9455;54.302;10.124;2022-10-13T02:20:17;101830.09;;;7.95;92.63
18652;BME280;9455;54.302;10.124;2022-10-13T02:22:46;101834.28;;;7.99;92.82
18652;BME280;9455;54.302;10.124;2022-10-13T02:25:13;101828.84;;;8.00;92.51
18652;BME280;9455;54.302;10.124;2022-10-13T02:27:39;101828.50;;;8.06;92.64
18652;BME280;9455;54.302;10.124;2022-10-13T02:30:07;101824.88;;;8.07;92.40
18652;BME280;9455;54.302;10.124;2022-10-13T02:32:35;101829.19;;;8.10;92.37
18652;BME280;9455;54.302;10.124;2022-10-13T02:35:02;101823.19;;;8.06;92.09
18652;BME280;9455;54.302;10.124;2022-10-13T02:37:29;101818.22;;;8.00;92.14
18652;BME280;9455;54.302;10.124;2022-10-13T02:39:55;101824.97;;;7.92;92.07
18652;BME280;9455;54.302;10.124;2022-10-13T02:42:23;101820.84;;;7.86;92.35
18652;BME280;9455;54.302;10.124;2022-10-13T02:44:49;101818.09;;;7.88;92.46
18652;BME280;9455;54.302;10.124;2022-10-13T02:47:16;101817.94;;;7.91;92.37
18652;BME280;9455;54.302;10.124;2022-10-13T02:49:43;101813.75;;;7.87;92.40
18652;BME280;9455;54.302;10.124;2022-10-13T02:52:10;101810.09;;;7.74;92.67
18652;BME280;9455;54.302;10.124;2022-10-13T02:54:36;101808.41;;;7.73;93.09
18652;BME280;9455;54.302;10.124;2022-10-13T02:57:03;101811.63;;;7.78;92.61
18652;BME280;9455;54.302;10.124;2022-10-13T02:59:29;101807.00;;;7.81;92.83
18652;BME280;9455;54.302;10.124;2022-10-13T03:01:56;101804.47;;;7.94;92.57
18652;BME280;9455;54.302;10.124;2022-10-13T03:04:22;101796.69;;;7.91;92.59
18652;BME280;9455;54.302;10.124;2022-10-13T03:06:50;101795.16;;;7.87;92.76
18652;BME280;9455;54.302;10.124;2022-10-13T03:09:17;101792.50;;;7.87;92.97
18652;BME280;9455;54.302;10.124;2022-10-13T03:11:43;101795.75;;;7.92;92.64
18652;BME280;9455;54.302;10.124;2022-10-13T03:14:09;101786.28;;;8.02;92.45
18652;BME280;9455;54.302;10.124;2022-10-13T03:16:36;101786.69;;;8.10;92.02
18652;BME280;9455;54.302;10.124;2022-10-13T03:19:03;101775.00;;;8.12;92.08
18652;BME280;9455;54.302;10.124;2022-10-13T03:21:29;101775.66;;;8.16;92.36
18652;BME280;9455;54.302;10.124;2022-10-13T03:23:57;101779.94;;;8.04;92.44
18652;BME280;9455;54.302;10.124;2022-10-13T03:26:24;101783.63;;;8.16;92.19
18652;BME280;9455;54.302;10.124;2022-10-13T03:28:50;101778.22;;;8.17;92.13
18652;BME280;9455;54.302;10.124;2022-10-13T03:31:17;101775.34;;;8.22;91.90
18652;BME280;9455;54.302;10.124;2022-10-13T03:33:44;101779.91;;;8.34;91.52
18652;BME280;9455;54.302;10.124;2022-10-13T03:36:11;101784.34;;;8.33;92.11
18652;BME280;9455;54.302;10.124;2022-10-13T03:38:38;101777.72;;;8.26;91.91
18652;BME280;9455;54.302;10.124;2022-10-13T03:41:07;101778.88;;;8.36;92.14
18652;BME280;9455;54.302;10.124;2022-10-13T03:43:34;101775.44;;;8.34;92.67
18652;BME280;9455;54.302;10.124;2022-10-13T03:46:02;101770.53;;;8.43;91.64
18652;BME280;9455;54.302;10.124;2022-10-13T03:48:29;101770.63;;;8.41;91.79
18652;BME280;9455;54.302;10.124;2022-10-13T03:50:57;101763.78;;;8.37;92.00
18652;BME280;9455;54.302;10.124;2022-10-13T03:53:24;101758.47;;;8.37;91.91
18652;BME280;9455;54.302;10.124;2022-10-13T03:55:52;101758.84;;;8.45;91.97
18652;BME280;9455;54.302;10.124;2022-10-13T03:58:22;101760.06;;;8.54;91.04
18652;BME280;9455;54.302;10.124;2022-10-13T04:00:49;101760.72;;;8.57;91.28
18652;BME280;9455;54.302;10.124;2022-10-13T04:03:17;101767.53;;;8.61;91.96
18652;BME280;9455;54.302;10.124;2022-10-13T04:05:44;101763.38;;;8.57;91.83
18652;BME280;9455;54.302;10.124;2022-10-13T04:08:11;101760.91;;;8.54;91.94
18652;BME280;9455;54.302;10.124;2022-10-13T04:10:37;101761.31;;;8.48;92.25
18652;BME280;9455;54.302;10.124;2022-10-13T04:13:05;101753.72;;;8.42;93.15
18652;BME280;9455;54.302;10.124;2022-10-13T04:15:36;101756.09;;;8.47;93.10
18652;BME280;9455;54.302;10.124;2022-10-13T04:18:03;101759.19;;;8.53;92.84
18652;BME280;9455;54.302;10.124;2022-10-13T04:20:30;101757.78;;;8.62;93.14
18652;BME280;9455;54.302;10.124;2022-10-13T04:22:57;101769.91;;;8.66;92.50
18652;BME280;9455;54.302;10.124;2022-10-13T04:25:23;101757.69;;;8.63;92.44
18652;BME280;9455;54.302;10.124;2022-10-13T04:27:49;101763.88;;;8.50;92.80
18652;BME280;9455;54.302;10.124;2022-10-13T04:30:16;101759.97;;;8.55;92.62
18652;BME280;9455;54.302;10.124;2022-10-13T04:32:44;101755.50;;;8.56;92.38
18652;BME280;9455;54.302;10.124;2022-10-13T04:35:10;101762.03;;;8.50;92.93
18652;BME280;9455;54.302;10.124;2022-10-13T04:37:37;101751.50;;;8.48;92.53
18652;BME280;9455;54.302;10.124;2022-10-13T04:40:04;101743.63;;;8.47;92.59
18652;BME280;9455;54.302;10.124;2022-10-13T04:42:31;101744.50;;;8.48;93.19
18652;BME280;9455;54.302;10.124;2022-10-13T04:44:57;101742.19;;;8.56;92.92
18652;BME280;9455;54.302;10.124;2022-10-13T04:47:24;101742.69;;;8.62;92.66
18652;BME280;9455;54.302;10.124;2022-10-13T04:49:52;101738.81;;;8.54;92.79
18652;BME280;9455;54.302;10.124;2022-10-13T04:52:18;101733.56;;;8.52;93.01
18652;BME280;9455;54.302;10.124;2022-10-13T04:54:44;101736.97;;;8.54;93.01
18652;BME280;9455;54.302;10.124;2022-10-13T04:57:11;101737.38;;;8.48;93.44
18652;BME280;9455;54.302;10.124;2022-10-13T04:59:37;101733.75;;;8.49;92.84
18652;BME280;9455;54.302;10.124;2022-10-13T05:02:04;101729.47;;;8.61;93.09
18652;BME280;9455;54.302;10.124;2022-10-13T05:04:31;101729.22;;;8.51;93.10
18652;BME280;9455;54.302;10.124;2022-10-13T05:06:58;101730.72;;;8.55;93.19
18652;BME280;9455;54.302;10.124;2022-10-13T05:09:25;101734.13;;;8.57;93.42
18652;BME280;9455;54.302;10.124;2022-10-13T05:11:51;101723.50;;;8.57;92.95
18652;BME280;9455;54.302;10.124;2022-10-13T05:14:19;101725.59;;;8.52;93.12
18652;BME280;9455;54.302;10.124;2022-10-13T05:16:45;101722.28;;;8.48;93.68
18652;BME280;9455;54.302;10.124;2022-10-13T05:19:12;101729.78;;;8.56;93.60
18652;BME280;9455;54.302;10.124;2022-10-13T05:21:39;101722.94;;;8.52;93.13
18652;BME280;9455;54.302;10.124;2022-10-13T05:24:07;101726.34;;;8.54;93.08
18652;BME280;9455;54.302;10.124;2022-10-13T05:26:38;101731.38;;;8.59;93.31
18652;BME280;9455;54.302;10.124;2022-10-13T05:29:05;101733.16;;;8.72;92.21
18652;BME280;9455;54.302;10.124;2022-10-13T05:31:33;101734.81;;;8.61;93.02
18652;BME280;9455;54.302;10.124;2022-10-13T05:34:00;101730.13;;;8.64;93.20
18652;BME280;9455;54.302;10.124;2022-10-13T05:36:29;101724.06;;;8.62;92.97
18652;BME280;9455;54.302;10.124;2022-10-13T05:38:57;101728.16;;;8.54;93.15
18652;BME280;9455;54.302;10.124;2022-10-13T05:41:26;101726.56;;;8.51;93.00
18652;BME280;9455;54.302;10.124;2022-10-13T05:43:55;101715.16;;;8.49;92.97
18652;BME280;9455;54.302;10.124;2022-10-13T05:46:23;101710.97;;;8.59;92.89
18652;BME280;9455;54.302;10.124;2022-10-13T05:48:50;101712.69;;;8.46;93.30
18652;BME280;9455;54.302;10.124;2022-10-13T05:51:19;101716.66;;;8.53;92.90
18652;BME280;9455;54.302;10.124;2022-10-13T05:53:48;101711.94;;;8.58;92.94
18652;BME280;9455;54.302;10.124;2022-10-13T05:56:18;101710.69;;;8.64;92.31
18652;BME280;9455;54.302;10.124;2022-10-13T05:58:50;101711.72;;;8.61;92.85
18652;BME280;9455;54.302;10.124;2022-10-13T06:01:21;101710.69;;;8.64;92.80
18652;BME280;9455;54.302;10.124;2022-10-13T06:03:51;101706.53;;;8.60;92.78
18652;BME280;9455;54.302;10.124;2022-10-13T06:06:21;101708.47;;;8.70;93.09
18652;BME280;9455;54.302;10.124;2022-10-13T06:08:48;101712.28;;;8.66;92.91
18652;BME280;9455;54.302;10.124;2022-10-13T06:11:15;101699.53;;;8.71;92.75
18652;BME280;9455;54.302;10.124;2022-10-13T06:13:42;101701.25;;;8.72;92.53
18652;BME280;9455;54.302;10.124;2022-10-13T06:16:10;101701.63;;;8.80;91.84
18652;BME280;9455;54.302;10.124;2022-10-13T06:18:36;101688.50;;;8.77;92.13
18652;BME280;9455;54.302;10.124;2022-10-13T06:21:03;101686.28;;;8.84;91.60
18652;BME280;9455;54.302;10.124;2022-10-13T06:23:30;101687.72;;;8.89;91.85
18652;BME280;9455;54.302;10.124;2022-10-13T06:25:56;101689.72;;;8.86;92.12
18652;BME280;9455;54.302;10.124;2022-10-13T06:28:23;101688.13;;;8.83;92.43
18652;BME280;9455;54.302;10.124;2022-10-13T06:30:49;101686.44;;;8.82;92.58
18652;BME280;9455;54.302;10.124;2022-10-13T06:33:22;101687.81;;;8.88;92.39
18652;BME280;9455;54.302;10.124;2022-10-13T06:35:48;101692.38;;;8.86;92.65
18652;BME280;9455;54.302;10.124;2022-10-13T06:38:15;101675.06;;;8.93;92.67
18652;BME280;9455;54.302;10.124;2022-10-13T06:40:42;101676.47;;;8.98;92.30
18652;BME280;9455;54.302;10.124;2022-10-13T06:43:08;101679.47;;;9.06;91.41
18652;BME280;9455;54.302;10.124;2022-10-13T06:45:35;101683.38;;;9.01;91.39
18652;BME280;9455;54.302;10.124;2022-10-13T06:48:02;101686.72;;;9.04;92.04
18652;BME280;9455;54.302;10.124;2022-10-13T06:50:30;101685.50;;;8.96;91.68
18652;BME280;9455;54.302;10.124;2022-10-13T06:52:57;101678.25;;;9.12;91.56
18652;BME280;9455;54.302;10.124;2022-10-13T06:55:24;101673.31;;;9.06;91.28
18652;BME280;9455;54.302;10.124;2022-10-13T06:57:51;101679.38;;;9.08;91.62
18652;BME280;9455;54.302;10.124;2022-10-13T07:00:17;101669.97;;;9.02;91.88
18652;BME280;9455;54.302;10.124;2022-10-13T07:02:44;101676.59;;;9.09;91.68
18652;BME280;9455;54.302;10.124;2022-10-13T07:05:10;101665.47;;;9.17;91.28
18652;BME280;9455;54.302;10.124;2022-10-13T07:07:38;101669.53;;;9.22;91.25
18652;BME280;9455;54.302;10.124;2022-10-13T07:10:05;101685.78;;;9.18;91.37
18652;BME280;9455;54.302;10.124;2022-10-13T07:12:32;101676.34;;;9.26;91.69
18652;BME280;9455;54.302;10.124;2022-10-13T07:14:58;101678.88;;;9.15;92.00
18652;BME280;9455;54.302;10.124;2022-10-13T07:17:25;101680.75;;;9.40;91.65
18652;BME280;9455;54.302;10.124;2022-10-13T07:19:51;101676.72;;;9.47;91.54
18652;BME280;9455;54.302;10.124;2022-10-13T07:22:18;101675.34;;;9.54;91.20
18652;BME280;9455;54.302;10.124;2022-10-13T07:24:46;101677.91;;;9.55;90.46
18652;BME280;9455;54.302;10.124;2022-10-13T07:27:12;101675.16;;;9.69;91.10
18652;BME280;9455;54.302;10.124;2022-10-13T07:29:39;101678.75;;;9.68;90.54
18652;BME280;9455;54.302;10.124;2022-10-13T07:32:05;101667.28;;;9.68;90.63
18652;BME280;9455;54.302;10.124;2022-10-13T07:34:32;101676.09;;;9.81;90.93
18652;BME280;9455;54.302;10.124;2022-10-13T07:36:58;101678.22;;;9.88;90.43
18652;BME280;9455;54.302;10.124;2022-10-13T07:39:25;101678.53;;;9.96;89.77
18652;BME280;9455;54.302;10.124;2022-10-13T07:41:53;101678.22;;;10.01;88.91
18652;BME280;9455;54.302;10.124;2022-10-13T07:44:19;101669.53;;;10.11;88.94
18652;BME280;9455;54.302;10.124;2022-10-13T07:46:46;101677.72;;;10.21;87.83
18652;BME280;9455;54.302;10.124;2022-10-13T07:49:12;101664.81;;;10.15;88.42
18652;BME280;9455;54.302;10.124;2022-10-13T07:51:39;101680.47;;;10.32;88.11
18652;BME280;9455;54.302;10.124;2022-10-13T07:54:06;101665.34;;;10.32;88.93
18652;BME280;9455;54.302;10.124;2022-10-13T07:56:32;101672.16;;;10.36;89.06
18652;BME280;9455;54.302;10.124;2022-10-13T07:59:01;101671.81;;;10.41;87.73
18652;BME280;9455;54.302;10.124;2022-10-13T08:01:28;101671.09;;;10.26;87.45
18652;BME280;9455;54.302;10.124;2022-10-13T08:03:54;101672.16;;;10.36;87.26
18652;BME280;9455;54.302;10.124;2022-10-13T08:06:21;101666.56;;;10.52;87.83
18652;BME280;9455;54.302;10.124;2022-10-13T08:08:47;101664.66;;;10.41;87.95
18652;BME280;9455;54.302;10.124;2022-10-13T08:11:15;101646.59;;;10.57;86.86
18652;BME280;9455;54.302;10.124;2022-10-13T08:13:45;101642.88;;;10.47;87.50
18652;BME280;9455;54.302;10.124;2022-10-13T08:16:13;101646.69;;;10.56;86.24
18652;BME280;9455;54.302;10.124;2022-10-13T08:18:40;101646.88;;;10.65;86.76
18652;BME280;9455;54.302;10.124;2022-10-13T08:21:08;101642.19;;;10.69;86.87
18652;BME280;9455;54.302;10.124;2022-10-13T08:23:37;101639.63;;;10.67;86.76
18652;BME280;9455;54.302;10.124;2022-10-13T08:26:04;101642.94;;;10.71;86.90
18652;BME280;9455;54.302;10.124;2022-10-13T08:28:31;101638.22;;;10.74;87.72
18652;BME280;9455;54.302;10.124;2022-10-13T08:30:57;101626.78;;;10.72;87.90
18652;BME280;9455;54.302;10.124;2022-10-13T08:33:25;101632.69;;;10.88;87.27
18652;BME280;9455;54.302;10.124;2022-10-13T08:35:52;101623.72;;;10.89;85.54
18652;BME280;9455;54.302;10.124;2022-10-13T08:38:19;101625.66;;;10.87;85.82
18652;BME280;9455;54.302;10.124;2022-10-13T08:40:46;101625.09;;;10.95;85.88
18652;BME280;9455;54.302;10.124;2022-10-13T08:43:16;101630.31;;;10.96;86.63
18652;BME280;9455;54.302;10.124;2022-10-13T08:45:44;101625.31;;;11.15;86.61
18652;BME280;9455;54.302;10.124;2022-10-13T08:48:14;101634.88;;;11.18;85.21
18652;BME280;9455;54.302;10.124;2022-10-13T08:50:46;101639.13;;;11.20;86.28
18652;BME280;9455;54.302;10.124;2022-10-13T08:53:19;101634.59;;;11.34;86.63
18652;BME280;9455;54.302;10.124;2022-10-13T08:55:51;101638.69;;;11.27;86.36
18652;BME280;9455;54.302;10.124;2022-10-13T08:58:22;101643.94;;;11.39;85.63
18652;BME280;9455;54.302;10.124;2022-10-13T09:00:52;101642.81;;;11.31;85.05
18652;BME280;9455;54.302;10.124;2022-10-13T09:03:25;101638.47;;;11.30;85.51
18652;BME280;9455;54.302;10.124;2022-10-13T09:06:08;101637.50;;;11.42;84.25
18652;BME280;9455;54.302;10.124;2022-10-13T09:08:39;101642.03;;;11.41;84.96
18652;BME280;9455;54.302;10.124;2022-10-13T09:11:09;101633.66;;;11.46;84.28
18652;BME280;9455;54.302;10.124;2022-10-13T09:13:35;101630.00;;;11.47;85.36
18652;BME280;9455;54.302;10.124;2022-10-13T09:16:02;101619.41;;;11.34;84.85
18652;BME280;9455;54.302;10.124;2022-10-13T09:18:30;101609.97;;;11.41;85.45
18652;BME280;9455;54.302;10.124;2022-10-13T09:21:20;101611.41;;;11.34;86.21
18652;BME280;9455;54.302;10.124;2022-10-13T09:23:49;101611.28;;;11.36;86.47
18652;BME280;9455;54.302;10.124;2022-10-13T09:26:18;101610.81;;;11.42;85.91
18652;BME280;9455;54.302;10.124;2022-10-13T09:28:45;101615.91;;;11.45;86.38
18652;BME280;9455;54.302;10.124;2022-10-13T09:31:15;101610.34;;;11.48;85.35
18652;BME280;9455;54.302;10.124;2022-10-13T09:33:42;101606.78;;;11.71;85.44
18652;BME280;9455;54.302;10.124;2022-10-13T09:36:11;101607.25;;;11.65;85.71
18652;BME280;9455;54.302;10.124;2022-10-13T09:38:42;101615.50;;;11.73;84.37
18652;BME280;9455;54.302;10.124;2022-10-13T09:41:15;101614.56;;;11.85;83.86
18652;BME280;9455;54.302;10.124;2022-10-13T09:43:57;101610.44;;;11.92;84.21
18652;BME280;9455;54.302;10.124;2022-10-13T09:46:26;101613.47;;;11.87;85.44
18652;BME280;9455;54.302;10.124;2022-10-13T09:48:55;101611.13;;;11.83;85.41
18652;BME280;9455;54.302;10.124;2022-10-13T09:51:29;101613.56;;;11.97;84.42
18652;BME280;9455;54.302;10.124;2022-10-13T09:53:59;101611.75;;;11.97;85.01
18652;BME280;9455;54.302;10.124;2022-10-13T09:56:29;101607.28;;;12.09;84.16
18652;BME280;9455;54.302;10.124;2022-10-13T09:59:07;101602.63;;;12.11;83.71
18652;BME280;9455;54.302;10.124;2022-10-13T10:01:39;101601.41;;;12.15;83.66
18652;BME280;9455;54.302;10.124;2022-10-13T10:04:12;101601.41;;;12.15;84.44
18652;BME280;9455;54.302;10.124;2022-10-13T10:06:39;101595.69;;;12.19;83.68
18652;BME280;9455;54.302;10.124;2022-10-13T10:09:24;101591.69;;;12.25;84.25
18652;BME280;9455;54.302;10.124;2022-10-13T10:11:58;101592.06;;;12.31;84.11
18652;BME280;9455;54.302;10.124;2022-10-13T10:14:27;101594.09;;;12.39;84.67
18652;BME280;9455;54.302;10.124;2022-10-13T10:16:59;101590.47;;;12.29;83.88
18652;BME280;9455;54.302;10.124;2022-10-13T10:19:36;101590.00;;;12.24;84.76
18652;BME280;9455;54.302;10.124;2022-10-13T10:22:10;101587.16;;;12.36;84.30
18652;BME280;9455;54.302;10.124;2022-10-13T10:24:47;101586.72;;;12.31;85.19
18652;BME280;9455;54.302;10.124;2022-10-13T10:27:17;101591.53;;;12.37;84.51
18652;BME280;9455;54.302;10.124;2022-10-13T10:29:48;101585.97;;;12.29;85.16
18652;BME280;9455;54.302;10.124;2022-10-13T10:32:26;101594.47;;;12.23;84.70
18652;BME280;9455;54.302;10.124;2022-10-13T10:34:56;101590.97;;;12.23;85.01
18652;BME280;9455;54.302;10.124;2022-10-13T10:37:36;101588.41;;;12.32;85.13
18652;BME280;9455;54.302;10.124;2022-10-13T10:40:18;101584.50;;;12.25;86.00
18652;BME280;9455;54.302;10.124;2022-10-13T10:42:57;101580.97;;;12.25;85.37
18652;BME280;9455;54.302;10.124;2022-10-13T10:45:30;101592.69;;;12.13;85.85
18652;BME280;9455;54.302;10.124;2022-10-13T10:48:02;101576.41;;;12.16;85.77
18652;BME280;9455;54.302;10.124;2022-10-13T10:50:30;101575.91;;;12.22;85.94
18652;BME280;9455;54.302;10.124;2022-10-13T10:53:01;101568.47;;;12.25;86.94
18652;BME280;9455;54.302;10.124;2022-10-13T10:55:33;101569.69;;;12.21;86.39
18652;BME280;9455;54.302;10.124;2022-10-13T10:58:08;101561.44;;;12.24;86.71
18652;BME280;9455;54.302;10.124;2022-10-13T11:00:42;101561.97;;;12.39;86.19
18652;BME280;9455;54.302;10.124;2022-10-13T11:03:19;101553.69;;;12.53;86.72
18652;BME280;9455;54.302;10.124;2022-10-13T11:05:58;101557.09;;;12.55;85.44
18652;BME280;9455;54.302;10.124;2022-10-13T11:08:27;101560.09;;;12.61;86.11
18652;BME280;9455;54.302;10.124;2022-10-13T11:11:33;101556.66;;;12.70;85.14
18652;BME280;9455;54.302;10.124;2022-10-13T11:14:08;101551.38;;;12.59;87.25
18652;BME280;9455;54.302;10.124;2022-10-13T11:17:02;101553.06;;;12.60;87.03
18652;BME280;9455;54.302;10.124;2022-10-13T11:19:36;101556.09;;;12.67;87.80
18652;BME280;9455;54.302;10.124;2022-10-13T11:22:21;101557.78;;;12.68;89.33
18652;BME280;9455;54.302;10.124;2022-10-13T11:24:51;101543.66;;;12.66;88.68
18652;BME280;9455;54.302;10.124;2022-10-13T11:27:24;101549.56;;;12.80;87.86
18652;BME280;9455;54.302;10.124;2022-10-13T11:29:53;101549.88;;;12.66;87.97
18652;BME280;9455;54.302;10.124;2022-10-13T11:32:43;101548.34;;;12.84;88.14
18652;BME280;9455;54.302;10.124;2022-10-13T11:35:21;101535.75;;;12.96;87.38
18652;BME280;9455;54.302;10.124;2022-10-13T11:43:35;101520.13;;;13.12;86.31
18652;BME280;9455;54.302;10.124;2022-10-13T11:46:30;101533.91;;;13.07;85.17
18652;BME280;9455;54.302;10.124;2022-10-13T11:49:36;101523.75;;;13.11;85.06
18652;BME280;9455;54.302;10.124;2022-10-13T11:52:44;101537.75;;;13.14;85.99
18652;BME280;9455;54.302;10.124;2022-10-13T11:57:40;101535.06;;;13.14;85.74
18652;BME280;9455;54.302;10.124;2022-10-13T12:00:13;101527.44;;;13.10;85.72
18652;BME280;9455;54.302;10.124;2022-10-13T12:02:46;101526.72;;;13.28;85.22
18652;BME280;9455;54.302;10.124;2022-10-13T12:05:19;101523.09;;;13.39;84.41
18652;BME280;9455;54.302;10.124;2022-10-13T12:07:47;101517.38;;;13.53;83.71
18652;BME280;9455;54.302;10.124;2022-10-13T12:10:18;101513.91;;;13.62;84.58
18652;BME280;9455;54.302;10.124;2022-10-13T12:12:47;101517.31;;;13.64;84.15
18652;BME280;9455;54.302;10.124;2022-10-13T12:15:31;101517.31;;;13.64;84.02
18652;BME280;9455;54.302;10.124;2022-10-13T12:17:59;101509.44;;;13.72;82.93
18652;BME280;9455;54.302;10.124;2022-10-13T12:20:27;101508.78;;;13.89;82.34
18652;BME280;9455;54.302;10.124;2022-10-13T12:22:55;101508.38;;;13.94;82.30
18652;BME280;9455;54.302;10.124;2022-10-13T12:25:24;101501.88;;;13.87;82.54
18652;BME280;9455;54.302;10.124;2022-10-13T12:27:53;101508.41;;;14.03;81.86
18652;BME280;9455;54.302;10.124;2022-10-13T12:30:21;101505.28;;;13.98;80.83
18652;BME280;9455;54.302;10.124;2022-10-13T12:32:51;101505.72;;;14.03;79.26
18652;BME280;9455;54.302;10.124;2022-10-13T12:35:18;101507.06;;;13.88;80.35
18652;BME280;9455;54.302;10.124;2022-10-13T12:37:46;101509.06;;;13.86;82.46
18652;BME280;9455;54.302;10.124;2022-10-13T12:40:15;101499.03;;;13.88;82.26
18652;BME280;9455;54.302;10.124;2022-10-13T12:42:42;101502.31;;;13.92;80.84
18652;BME280;9455;54.302;10.124;2022-10-13T12:45:13;101505.50;;;13.85;81.47
18652;BME280;9455;54.302;10.124;2022-10-13T12:47:47;101504.97;;;13.92;80.63
18652;BME280;9455;54.302;10.124;2022-10-13T12:50:37;101502.38;;;13.71;80.67
18652;BME280;9455;54.302;10.124;2022-10-13T12:53:15;101501.94;;;13.66;80.72
18652;BME280;9455;54.302;10.124;2022-10-13T12:55:52;101501.00;;;13.76;81.10
18652;BME280;9455;54.302;10.124;2022-10-13T12:58:22;101499.88;;;13.79;80.09
18652;BME280;9455;54.302;10.124;2022-10-13T13:01:07;101506.75;;;13.72;81.80
18652;BME280;9455;54.302;10.124;2022-10-13T13:03:35;101509.31;;;13.73;81.34
18652;BME280;9455;54.302;10.124;2022-10-13T13:06:09;101497.28;;;13.68;82.56
18652;BME280;9455;54.302;10.124;2022-10-13T13:08:44;101497.56;;;13.65;83.33
18652;BME280;9455;54.302;10.124;2022-10-13T13:11:19;101501.94;;;13.75;83.15
18652;BME280;9455;54.302;10.124;2022-10-13T13:13:46;101506.50;;;13.75;82.81
18652;BME280;9455;54.302;10.124;2022-10-13T13:16:14;101506.38;;;13.56;83.44
18652;BME280;9455;54.302;10.124;2022-10-13T13:18:42;101512.00;;;13.53;84.17